createdAt,value
2022-09-10T04:00:59.975Z,1.60
2022-09-10T04:03:32.048Z,1.67
2022-09-10T04:06:04.199Z,1.60
2022-09-10T04:08:36.208Z,1.30
2022-09-10T04:11:08.199Z,1.80
2022-09-10T04:13:40.200Z,1.80
2022-09-10T04:16:13.556Z,2.60
2022-09-10T04:18:45.616Z,1.65
2022-09-10T04:21:17.628Z,1.60
2022-09-10T04:23:49.646Z,1.60
2022-09-10T04:26:21.677Z,1.83
2022-09-10T04:28:53.696Z,1.63
2022-09-10T04:31:27.058Z,1.50
2022-09-10T04:33:59.099Z,1.52
2022-09-10T04:36:31.088Z,1.60
2022-09-10T04:39:03.092Z,1.80
2022-09-10T04:41:35.181Z,1.60
2022-09-10T04:44:07.384Z,2.03
2022-09-10T04:46:40.718Z,1.75
2022-09-10T04:49:12.734Z,1.60
2022-09-10T04:51:44.723Z,1.70
2022-09-10T04:54:16.728Z,1.58
2022-09-10T04:56:48.728Z,1.50
2022-09-10T04:59:20.731Z,1.70
2022-09-10T05:01:54.060Z,1.73
2022-09-10T05:04:26.156Z,2.40
2022-09-10T05:06:58.172Z,1.88
2022-09-10T05:09:30.180Z,2.10
2022-09-10T05:12:02.311Z,1.70
2022-09-10T05:14:35.375Z,1.65
2022-09-10T05:17:08.703Z,1.50
2022-09-10T05:19:40.699Z,1.90
2022-09-10T05:22:12.687Z,1.70
2022-09-10T05:24:44.689Z,1.80
2022-09-10T05:27:16.688Z,1.52
2022-09-10T05:29:48.685Z,1.40
2022-09-10T05:32:22.784Z,1.70
2022-09-10T05:34:54.428Z,1.70
2022-09-10T05:37:26.057Z,1.45
2022-09-10T05:39:58.681Z,1.70
2022-09-10T05:42:32.482Z,1.60
2022-09-10T05:45:04.739Z,2.15
2022-09-10T05:47:38.090Z,1.63
2022-09-10T05:50:10.294Z,1.50
2022-09-10T05:52:42.274Z,1.63
2022-09-10T05:55:14.350Z,1.30
2022-09-10T05:57:46.369Z,1.75
2022-09-10T06:00:18.447Z,1.50
2022-09-10T06:02:51.886Z,1.80
2022-09-10T06:05:24.139Z,1.30
2022-09-10T06:07:56.133Z,1.58
2022-09-10T06:10:28.140Z,1.60
2022-09-10T06:13:00.119Z,1.60
2022-09-10T06:15:32.123Z,1.40
2022-09-10T06:18:05.531Z,1.50
2022-09-10T06:20:37.537Z,1.40
2022-09-10T06:23:09.523Z,2.10
2022-09-10T06:25:41.523Z,1.38
2022-09-10T06:28:13.512Z,1.55
2022-09-10T06:30:45.564Z,1.38
2022-09-10T06:33:18.912Z,1.50
2022-09-10T06:35:53.720Z,1.48
2022-09-10T06:38:25.902Z,1.42
2022-09-10T06:40:59.813Z,1.50
2022-09-10T06:43:32.716Z,1.60
2022-09-10T06:46:24.846Z,1.90
2022-09-10T06:49:01.511Z,1.40
2022-09-10T06:51:33.511Z,1.50
2022-09-10T06:54:05.610Z,1.67
2022-09-10T06:56:38.478Z,1.50
2022-09-10T06:59:10.467Z,1.50
2022-09-10T07:01:42.539Z,1.50
2022-09-10T07:04:16.450Z,2.10
2022-09-10T07:06:48.518Z,1.90
2022-09-10T07:09:20.592Z,1.90
2022-09-10T07:11:53.362Z,1.65
2022-09-10T07:14:26.116Z,1.50
2022-09-10T07:16:59.043Z,1.80
2022-09-10T07:19:32.385Z,1.80
2022-09-10T07:22:05.492Z,2.05
2022-09-10T07:24:38.499Z,1.90
2022-09-10T07:27:11.595Z,1.63
2022-09-10T07:29:44.498Z,1.88
2022-09-10T07:32:17.621Z,1.98
2022-09-10T07:34:51.820Z,1.85
2022-09-10T07:37:24.864Z,1.98
2022-09-10T07:39:56.877Z,2.00
2022-09-10T07:42:28.898Z,2.00
2022-09-10T07:45:00.893Z,2.00
2022-09-10T07:47:32.888Z,1.88
2022-09-10T07:50:06.683Z,2.05
2022-09-10T07:52:38.827Z,1.92
2022-09-10T07:55:10.856Z,1.67
2022-09-10T07:57:42.970Z,2.20
2022-09-10T08:00:15.036Z,1.70
2022-09-10T08:02:47.058Z,1.98
2022-09-10T08:05:20.409Z,1.80
2022-09-10T08:07:52.812Z,1.70
2022-09-10T08:10:24.820Z,1.80
2022-09-10T08:12:56.812Z,1.80
2022-09-10T08:15:28.819Z,1.75
2022-09-10T08:18:00.819Z,1.60
2022-09-10T08:20:34.165Z,1.77
2022-09-10T08:23:06.203Z,1.85
2022-09-10T08:25:38.212Z,1.50
2022-09-10T08:28:10.230Z,1.70
2022-09-10T08:30:42.285Z,2.00
2022-09-10T08:33:14.330Z,1.80
2022-09-10T08:35:47.667Z,1.88
2022-09-10T08:38:19.671Z,1.70
2022-09-10T08:40:51.701Z,1.60
2022-09-10T08:43:25.912Z,1.80
2022-09-10T08:45:57.935Z,1.80
2022-09-10T08:48:29.985Z,2.00
2022-09-10T08:51:04.047Z,1.75
2022-09-10T08:53:38.911Z,1.48
2022-09-10T08:56:13.601Z,2.20
2022-09-10T08:58:46.139Z,1.80
2022-09-10T09:01:20.094Z,1.98
2022-09-10T09:03:52.143Z,1.90
2022-09-10T09:06:27.059Z,2.00
2022-09-10T09:08:59.089Z,1.77
2022-09-10T09:11:34.232Z,2.22
2022-09-10T09:14:09.686Z,2.30
2022-09-10T09:16:53.918Z,2.03
2022-09-10T09:19:30.261Z,2.30
2022-09-10T09:22:05.800Z,2.03
2022-09-10T09:24:41.367Z,1.85
2022-09-10T09:27:15.516Z,2.50
2022-09-10T09:29:49.844Z,2.17
2022-09-10T09:32:21.648Z,1.95
2022-09-10T09:34:54.519Z,2.00
2022-09-10T09:37:28.630Z,1.80
2022-09-10T09:40:05.633Z,1.85
2022-09-10T09:42:42.619Z,1.95
2022-09-10T09:45:21.259Z,2.65
2022-09-10T09:47:53.618Z,2.88
2022-09-10T09:50:25.261Z,2.60
2022-09-10T09:52:58.251Z,2.53
2022-09-10T09:55:30.937Z,2.97
2022-09-10T09:58:28.293Z,2.60
2022-09-10T10:01:21.781Z,3.30
2022-09-10T10:03:54.843Z,3.92
2022-09-10T10:06:27.736Z,3.00
2022-09-10T10:09:02.541Z,3.15
2022-09-10T10:11:46.564Z,3.13
2022-09-10T10:14:36.931Z,3.20
2022-09-10T10:17:41.697Z,3.17
2022-09-10T10:20:14.489Z,3.50
2022-09-10T10:22:46.812Z,3.40
2022-09-10T10:25:36.627Z,3.13
2022-09-10T10:28:15.411Z,3.53
2022-09-10T10:30:51.086Z,3.40
2022-09-10T10:33:26.195Z,3.92
2022-09-10T10:36:02.576Z,4.05
2022-09-10T10:38:34.417Z,3.20
2022-09-10T10:41:16.010Z,3.30
2022-09-10T10:43:51.989Z,3.53
2022-09-10T10:46:26.991Z,3.10
2022-09-10T10:49:05.168Z,3.33
2022-09-10T10:51:41.763Z,3.20
2022-09-10T10:54:34.334Z,3.10
2022-09-10T10:57:13.674Z,2.83
2022-09-10T10:59:50.992Z,2.72
2022-09-10T11:02:27.634Z,2.92
2022-09-10T11:05:00.932Z,2.58
2022-09-10T11:07:35.330Z,2.45
2022-09-10T11:10:12.322Z,2.40
2022-09-10T11:12:46.447Z,2.63
2022-09-10T11:15:22.123Z,2.38
2022-09-10T11:17:55.593Z,2.17
2022-09-10T11:20:29.871Z,2.50
2022-09-10T11:23:05.967Z,2.78
2022-09-10T11:25:39.011Z,2.40
2022-09-10T11:28:14.050Z,3.30
2022-09-10T11:30:48.283Z,3.15
2022-09-10T11:33:21.510Z,3.20
2022-09-10T11:35:55.877Z,3.28
2022-09-10T11:38:29.384Z,3.15
2022-09-10T11:41:06.902Z,3.50
2022-09-10T11:43:41.701Z,3.13
2022-09-10T11:46:15.168Z,3.53
2022-09-10T11:48:48.141Z,3.30
2022-09-10T11:51:21.805Z,3.80
2022-09-10T11:53:53.473Z,3.20
2022-09-10T11:56:38.018Z,3.70
2022-09-10T11:59:17.231Z,3.30
2022-09-10T12:02:01.408Z,3.20
2022-09-10T12:04:49.713Z,3.00
2022-09-10T12:07:29.505Z,3.03
2022-09-10T12:10:09.952Z,2.90
2022-09-10T12:12:46.096Z,3.38
2022-09-10T12:15:23.154Z,3.30
2022-09-10T12:17:55.721Z,3.67
2022-09-10T12:20:30.061Z,4.10
2022-09-10T12:23:01.707Z,3.97
2022-09-10T12:25:34.742Z,4.80
2022-09-10T12:28:44.445Z,5.03
2022-09-10T12:31:18.022Z,4.78
2022-09-10T12:34:05.107Z,4.97
2022-09-10T12:36:55.875Z,5.10
2022-09-10T12:39:28.084Z,5.28
2022-09-10T12:42:00.888Z,5.03
2022-09-10T12:44:53.329Z,5.53
2022-09-10T12:47:50.364Z,5.07
2022-09-10T12:50:35.062Z,5.50
2022-09-10T12:53:41.166Z,6.03
2022-09-10T12:56:29.374Z,5.22
2022-09-10T12:59:06.439Z,5.25
2022-09-10T13:01:41.730Z,5.40
2022-09-10T13:04:23.141Z,5.50
2022-09-10T13:06:55.918Z,5.43
2022-09-10T13:09:29.247Z,5.70
2022-09-10T13:12:02.101Z,5.50
2022-09-10T13:14:34.821Z,5.60
2022-09-10T13:17:07.107Z,5.80
2022-09-10T13:19:51.539Z,6.70
2022-09-10T13:22:34.799Z,7.43
2022-09-10T13:25:25.428Z,8.20
2022-09-10T13:27:58.192Z,7.70
2022-09-10T13:30:30.959Z,8.20
2022-09-10T13:33:05.445Z,8.18
2022-09-10T13:35:46.364Z,7.47
2022-09-10T13:38:29.519Z,7.47
2022-09-10T13:41:03.666Z,8.68
2022-09-10T13:43:54.241Z,9.65
2022-09-10T13:46:28.347Z,7.97
2022-09-10T13:49:01.836Z,9.48
2022-09-10T13:51:36.795Z,9.25
2022-09-10T13:54:10.433Z,9.52
2022-09-10T13:56:43.268Z,10.10
2022-09-10T13:59:17.603Z,9.88
2022-09-10T14:01:51.500Z,10.10
2022-09-10T14:04:25.264Z,10.18
2022-09-10T14:07:02.047Z,10.93
2022-09-10T14:09:34.902Z,10.75
2022-09-10T14:12:08.032Z,11.70
2022-09-10T14:14:41.592Z,11.90
2022-09-10T14:17:15.245Z,11.43
2022-09-10T14:19:48.852Z,11.18
2022-09-10T14:22:23.248Z,12.13
2022-09-10T14:24:56.429Z,11.27
2022-09-10T14:27:29.607Z,11.35
2022-09-10T14:30:17.499Z,11.32
2022-09-10T14:32:50.486Z,10.27
2022-09-10T14:35:36.377Z,10.40
2022-09-10T14:38:22.613Z,8.85
2022-09-10T14:40:56.592Z,7.75
2022-09-10T14:43:30.337Z,7.78
2022-09-10T14:46:05.928Z,7.75
2022-09-10T14:48:39.178Z,7.15
2022-09-10T14:51:12.733Z,7.20
2022-09-10T14:53:47.302Z,6.78
2022-09-10T14:56:21.703Z,6.30
2022-09-10T14:58:56.807Z,6.28
2022-09-10T15:01:29.910Z,5.65
2022-09-10T15:04:02.907Z,5.32
2022-09-10T15:06:35.806Z,5.78
2022-09-10T15:09:10.064Z,5.53
2022-09-10T15:11:44.824Z,5.18
2022-09-10T15:14:17.709Z,5.40
2022-09-10T15:16:50.726Z,5.80
2022-09-10T15:19:23.834Z,5.07
2022-09-10T15:21:56.700Z,5.82
2022-09-10T15:24:39.045Z,5.88
2022-09-10T15:27:23.849Z,6.07
2022-09-10T15:29:56.793Z,6.18
2022-09-10T15:32:29.729Z,6.07
2022-09-10T15:35:02.640Z,6.20
2022-09-10T15:37:35.563Z,6.68
2022-09-10T15:40:10.665Z,7.15
2022-09-10T15:42:43.575Z,7.30
2022-09-10T15:45:16.482Z,7.40
2022-09-10T15:47:49.403Z,7.15
2022-09-10T15:50:22.304Z,6.28
2022-09-10T15:52:55.223Z,7.03
2022-09-10T15:55:29.420Z,7.55
2022-09-10T15:58:02.312Z,7.47
2022-09-10T16:00:35.449Z,8.30
2022-09-10T16:03:08.428Z,8.13
2022-09-10T16:05:41.447Z,8.52
2022-09-10T16:08:14.463Z,7.90
2022-09-10T16:10:48.720Z,8.20
2022-09-10T16:13:21.596Z,8.30
2022-09-10T16:16:01.091Z,7.60
2022-09-10T16:18:34.191Z,7.80
2022-09-10T16:21:07.533Z,7.63
2022-09-10T16:23:40.816Z,7.75
2022-09-10T16:26:15.506Z,7.05
2022-09-10T16:28:51.669Z,7.45
2022-09-10T16:31:25.130Z,7.25
2022-09-10T16:33:58.434Z,7.18
2022-09-10T16:36:31.412Z,5.88
2022-09-10T16:39:04.381Z,6.95
2022-09-10T16:41:38.698Z,6.25
2022-09-10T16:44:11.894Z,6.35
2022-09-10T16:46:44.901Z,6.30
2022-09-10T16:49:18.231Z,5.50
2022-09-10T16:51:51.221Z,5.22
2022-09-10T16:54:24.121Z,5.40
2022-09-10T16:56:58.352Z,5.05
2022-09-10T16:59:30.352Z,4.82
2022-09-10T17:02:03.339Z,5.13
2022-09-10T17:04:36.578Z,4.85
2022-09-10T17:07:09.460Z,5.38
2022-09-10T17:09:41.457Z,5.75
2022-09-10T17:12:14.837Z,5.60
2022-09-10T17:14:46.849Z,6.40
2022-09-10T17:17:18.881Z,5.40
2022-09-10T17:19:50.867Z,5.32
2022-09-10T17:22:22.874Z,5.90
2022-09-10T17:24:54.885Z,5.75
2022-09-10T17:27:28.272Z,5.68
2022-09-10T17:30:00.298Z,5.63
2022-09-10T17:32:32.352Z,5.43
2022-09-10T17:35:04.635Z,5.78
2022-09-10T17:37:36.655Z,5.90
2022-09-10T17:40:09.209Z,6.53
2022-09-10T17:42:42.597Z,6.25
2022-09-10T17:45:14.686Z,6.30
2022-09-10T17:47:46.724Z,7.07
2022-09-10T17:50:18.724Z,7.10
2022-09-10T17:52:50.775Z,6.82
2022-09-10T17:55:22.764Z,7.90
2022-09-10T17:57:56.145Z,6.85
2022-09-10T18:00:28.142Z,7.35
2022-09-10T18:03:00.217Z,6.95
2022-09-10T18:05:32.232Z,7.97
2022-09-10T18:08:04.297Z,7.60
2022-09-10T18:10:36.369Z,7.03
2022-09-10T18:13:09.805Z,8.18
2022-09-10T18:15:42.006Z,8.57
2022-09-10T18:18:14.187Z,8.73
2022-09-10T18:20:46.175Z,9.60
2022-09-10T18:23:18.201Z,9.43
2022-09-10T18:25:50.202Z,10.25
2022-09-10T18:28:23.560Z,9.75
2022-09-10T18:30:55.618Z,10.02
2022-09-10T18:33:27.637Z,10.88
2022-09-10T18:35:59.639Z,9.73
2022-09-10T18:38:32.637Z,10.60
2022-09-10T18:41:04.644Z,10.57
2022-09-10T18:43:39.035Z,10.27
2022-09-10T18:46:12.010Z,12.35
2022-09-10T18:48:45.071Z,12.43
2022-09-10T18:51:18.800Z,11.23
2022-09-10T18:53:53.438Z,13.40
2022-09-10T18:56:26.613Z,12.48
2022-09-10T18:59:01.195Z,12.13
2022-09-10T19:01:33.881Z,12.18
2022-09-10T19:04:06.980Z,11.40
2022-09-10T19:06:40.378Z,12.32
2022-09-10T19:09:12.721Z,12.82
2022-09-10T19:11:45.275Z,11.40
2022-09-10T19:14:19.153Z,12.30
2022-09-10T19:16:51.259Z,11.93
2022-09-10T19:19:23.739Z,11.23
2022-09-10T19:21:56.181Z,12.23
2022-09-10T19:24:50.957Z,11.45
2022-09-10T19:27:20.205Z,11.85
2022-09-10T19:29:53.180Z,12.65
2022-09-10T19:32:24.895Z,12.63
2022-09-10T19:34:56.533Z,11.70
2022-09-10T19:37:28.171Z,11.80
2022-09-10T19:39:59.853Z,12.90
2022-09-10T19:42:31.531Z,12.07
2022-09-10T19:45:09.930Z,13.07
2022-09-10T19:47:41.876Z,12.63
2022-09-10T19:50:13.590Z,12.82
2022-09-10T19:52:45.235Z,12.35
2022-09-10T19:55:16.975Z,13.10
2022-09-10T19:57:48.650Z,13.13
2022-09-10T20:00:45.494Z,14.00
2022-09-10T20:03:13.398Z,13.55
2022-09-10T20:05:45.082Z,14.02
2022-09-10T20:08:16.725Z,14.52
2022-09-10T20:10:51.400Z,13.35
2022-09-10T20:13:23.217Z,14.40
2022-09-10T20:15:56.436Z,15.93
2022-09-10T20:18:28.425Z,13.88
2022-09-10T20:21:08.422Z,14.40
2022-09-10T20:23:40.486Z,14.68
2022-09-10T20:26:13.207Z,15.65
2022-09-10T20:28:44.944Z,13.60
2022-09-10T20:31:17.952Z,13.38
2022-09-10T20:33:53.030Z,13.63
2022-09-10T20:36:25.065Z,14.23
2022-09-10T20:38:56.711Z,14.87
2022-09-10T20:41:28.443Z,14.87
2022-09-10T20:44:00.928Z,14.73
2022-09-10T20:46:34.694Z,14.25
2022-09-10T20:49:06.388Z,14.20
2022-09-10T20:51:38.530Z,14.30
2022-09-10T20:54:11.209Z,14.53
2022-09-10T20:56:42.989Z,14.23
2022-09-10T20:59:15.677Z,13.88
2022-09-10T21:01:48.760Z,14.63
2022-09-10T21:04:20.492Z,14.35
2022-09-10T21:06:52.155Z,13.10
2022-09-10T21:09:23.800Z,15.57
2022-09-10T21:11:55.467Z,12.25
2022-09-10T21:14:27.109Z,12.13
2022-09-10T21:17:00.157Z,12.75
2022-09-10T21:19:31.805Z,12.43
2022-09-10T21:22:03.477Z,12.63
2022-09-10T21:24:35.123Z,13.60
2022-09-10T21:27:06.756Z,13.52
2022-09-10T21:29:39.348Z,12.65
2022-09-10T21:32:12.347Z,12.98
2022-09-10T21:34:43.978Z,11.98
2022-09-10T21:37:15.663Z,12.68
2022-09-10T21:39:48.905Z,11.88
2022-09-10T21:42:20.593Z,11.82
2022-09-10T21:44:52.228Z,12.03
2022-09-10T21:47:25.239Z,12.07
2022-09-10T21:49:56.879Z,10.90
2022-09-10T21:52:28.515Z,11.40
2022-09-10T21:55:00.204Z,11.83
2022-09-10T21:57:31.973Z,14.20
